createdAt,value
2019-03-23T00:00:16.126Z,80.18
2019-03-23T00:04:20.030Z,80.21
2019-03-23T00:08:21.907Z,80.05
2019-03-23T00:12:23.851Z,80.10
2019-03-23T00:16:25.744Z,80.06
2019-03-23T00:20:27.643Z,80.31
2019-03-23T00:24:29.535Z,80.30
2019-03-23T00:28:31.430Z,80.27
2019-03-23T00:32:33.340Z,80.35
2019-03-23T00:36:41.503Z,80.40
2019-03-23T00:40:38.942Z,80.50
2019-03-23T00:44:40.841Z,81.10
2019-03-23T00:48:42.745Z,80.85
2019-03-23T00:52:44.650Z,80.78
2019-03-23T00:56:46.547Z,80.84
2019-03-23T01:00:49.256Z,81.10
2019-03-23T01:04:51.144Z,81.13
2019-03-23T01:08:53.039Z,81.19
2019-03-23T01:12:54.965Z,81.40
2019-03-23T01:16:56.859Z,81.39
2019-03-23T01:20:58.762Z,81.40
2019-03-23T01:25:00.656Z,81.45
2019-03-23T01:29:04.499Z,81.73
2019-03-23T01:33:06.473Z,81.66
2019-03-23T01:37:08.350Z,81.47
2019-03-23T01:41:10.255Z,82.25
2019-03-23T01:45:13.653Z,81.83
2019-03-23T01:49:15.555Z,81.78
2019-03-23T01:53:17.447Z,81.73
2019-03-23T01:57:19.627Z,81.57
2019-03-23T02:01:21.506Z,81.68
2019-03-23T02:05:23.523Z,81.94
2019-03-23T02:09:25.417Z,81.94
2019-03-23T02:13:27.312Z,81.94
2019-03-23T02:17:29.206Z,82.00
2019-03-23T02:21:31.105Z,81.70
2019-03-23T02:25:33.009Z,81.92
2019-03-23T02:29:53.869Z,82.40
2019-03-23T02:33:55.947Z,82.34
2019-03-23T02:37:57.847Z,82.34
2019-03-23T02:41:59.793Z,82.68
2019-03-23T02:46:01.762Z,82.44
2019-03-23T02:50:05.904Z,82.68
2019-03-23T02:54:07.777Z,82.67
2019-03-23T02:58:09.690Z,81.93
2019-03-23T03:02:11.629Z,82.56
2019-03-23T03:06:13.773Z,82.89
2019-03-23T03:10:41.658Z,82.56
2019-03-23T03:14:43.643Z,83.13
2019-03-23T03:18:45.616Z,82.88
2019-03-23T03:22:47.577Z,82.87
2019-03-23T03:26:49.831Z,83.24
2019-03-23T03:30:52.933Z,83.10
2019-03-23T03:34:54.857Z,83.15
2019-03-23T03:38:56.858Z,82.59
2019-03-23T03:42:58.810Z,82.52
2019-03-23T03:47:00.746Z,83.14
2019-03-23T03:51:02.692Z,83.39
2019-03-23T03:55:06.337Z,83.15
2019-03-23T03:59:26.694Z,82.73
2019-03-23T04:03:43.598Z,82.90
2019-03-23T04:07:45.855Z,82.44
2019-03-23T04:11:47.752Z,82.92
2019-03-23T04:15:49.656Z,83.25
2019-03-23T04:19:51.803Z,83.40
2019-03-23T04:23:53.698Z,83.48
2019-03-23T04:27:55.614Z,84.21
2019-03-23T04:31:57.501Z,84.17
2019-03-23T04:35:59.400Z,83.79
2019-03-23T04:40:01.505Z,83.88
2019-03-23T04:44:04.453Z,83.66
2019-03-23T04:48:06.346Z,83.46
2019-03-23T04:52:08.244Z,83.23
2019-03-23T04:56:10.146Z,83.59
2019-03-23T05:00:16.620Z,83.63
2019-03-23T05:04:18.523Z,83.19
2019-03-23T05:08:20.417Z,82.61
2019-03-23T05:12:22.320Z,83.29
2019-03-23T05:16:24.260Z,83.89
2019-03-23T05:20:29.451Z,84.01
2019-03-23T05:24:31.376Z,84.24
2019-03-23T05:28:33.254Z,83.50
2019-03-23T05:32:35.164Z,83.73
2019-03-23T05:36:38.369Z,83.75
2019-03-23T05:40:41.331Z,83.93
2019-03-23T05:44:43.428Z,84.21
2019-03-23T05:48:45.316Z,85.00
2019-03-23T05:52:47.226Z,84.73
2019-03-23T05:56:49.182Z,84.80
2019-03-23T06:00:51.065Z,85.00
2019-03-23T06:04:52.970Z,85.10
2019-03-23T06:08:55.592Z,85.46
2019-03-23T06:12:58.502Z,85.16
2019-03-23T06:17:00.456Z,85.36
2019-03-23T06:21:02.337Z,85.82
2019-03-23T06:25:07.110Z,86.25
2019-03-23T06:29:08.982Z,86.29
2019-03-23T06:33:10.913Z,86.70
2019-03-23T06:37:13.774Z,87.29
2019-03-23T06:41:15.678Z,87.52
2019-03-23T06:45:18.538Z,87.77
2019-03-23T06:49:20.420Z,87.86
2019-03-23T06:53:22.328Z,88.09
2019-03-23T06:57:24.237Z,88.08
2019-03-23T07:01:26.163Z,87.65
2019-03-23T07:05:28.160Z,88.16
2019-03-23T07:09:30.053Z,90.89
2019-03-23T07:13:31.962Z,91.86
2019-03-23T07:17:33.963Z,93.17
2019-03-23T07:21:35.877Z,93.90
2019-03-23T07:25:38.231Z,94.39
2019-03-23T07:29:40.137Z,94.24
2019-03-23T07:33:42.037Z,93.65
2019-03-23T07:37:44.014Z,93.31
2019-03-23T07:41:46.999Z,93.04
2019-03-23T07:45:48.919Z,92.66
2019-03-23T07:49:50.851Z,92.09
2019-03-23T07:53:52.771Z,91.28
2019-03-23T07:57:54.688Z,90.73
2019-03-23T08:01:56.599Z,90.17
2019-03-23T08:05:58.553Z,89.20
2019-03-23T08:10:00.516Z,88.41
2019-03-23T08:14:02.376Z,87.88
2019-03-23T08:18:04.418Z,88.04
2019-03-23T08:22:06.409Z,87.86
2019-03-23T08:26:24.826Z,88.36
2019-03-23T08:30:26.699Z,87.02
2019-03-23T08:34:28.807Z,84.36
2019-03-23T08:38:30.707Z,82.90
2019-03-23T08:42:34.908Z,81.24
2019-03-23T08:46:36.237Z,81.09
2019-03-23T08:50:38.248Z,78.04
2019-03-23T08:54:40.143Z,77.77
2019-03-23T08:58:40.360Z,76.77
2019-03-23T09:02:42.351Z,75.69
2019-03-23T09:06:45.347Z,74.74
2019-03-23T09:10:47.467Z,73.80
2019-03-23T09:14:49.379Z,72.63
2019-03-23T09:18:51.305Z,71.63
2019-03-23T09:22:53.277Z,70.19
2019-03-23T09:26:55.207Z,69.89
2019-03-23T09:30:57.116Z,68.60
2019-03-23T09:34:59.042Z,65.80
2019-03-23T09:39:01.614Z,63.37
2019-03-23T09:43:03.891Z,60.49
2019-03-23T09:47:05.891Z,59.67
2019-03-23T09:51:26.534Z,59.75
2019-03-23T09:55:47.750Z,57.27
2019-03-23T09:59:49.674Z,56.14
2019-03-23T10:03:51.652Z,55.86
2019-03-23T10:07:53.585Z,54.67
2019-03-23T10:11:55.581Z,52.94
2019-03-23T10:15:57.508Z,50.57
2019-03-23T10:19:59.587Z,49.53
2019-03-23T10:24:01.809Z,49.23
2019-03-23T10:28:04.892Z,45.80
2019-03-23T10:32:06.895Z,45.30
2019-03-23T10:36:18.387Z,43.58
2019-03-23T10:40:20.326Z,41.54
2019-03-23T10:44:22.454Z,42.84
2019-03-23T10:48:24.358Z,39.81
2019-03-23T10:52:26.283Z,35.27
2019-03-23T10:56:28.206Z,35.22
2019-03-23T11:00:30.123Z,35.12
2019-03-23T11:04:32.244Z,36.23
2019-03-23T11:08:34.155Z,35.33
2019-03-23T11:12:37.161Z,33.83
2019-03-23T11:16:39.155Z,33.87
2019-03-23T11:20:41.071Z,33.00
2019-03-23T11:24:42.991Z,30.90
2019-03-23T11:32:57.077Z,29.71
2019-03-23T11:36:59.049Z,30.65
2019-03-23T11:41:01.484Z,32.45
2019-03-23T11:45:04.039Z,30.20
2019-03-23T11:49:05.969Z,30.76
2019-03-23T11:53:07.894Z,31.19
2019-03-23T11:57:09.818Z,29.60
2019-03-23T12:01:11.745Z,29.52
2019-03-23T12:05:14.098Z,30.09
2019-03-23T12:09:16.064Z,31.78
2019-03-23T12:13:17.994Z,32.39
2019-03-23T12:17:20.026Z,32.33
2019-03-23T12:21:21.979Z,31.43
2019-03-23T12:25:23.922Z,30.30
2019-03-23T12:29:25.828Z,29.89
2019-03-23T12:33:27.804Z,28.85
2019-03-23T12:37:29.732Z,30.73
2019-03-23T12:41:31.653Z,30.27
2019-03-23T12:45:33.609Z,28.61
2019-03-23T12:49:35.530Z,29.27
2019-03-23T12:53:37.458Z,27.32
2019-03-23T12:57:40.485Z,27.49
2019-03-23T13:01:42.447Z,27.57
2019-03-23T13:05:44.446Z,25.99
2019-03-23T13:09:46.362Z,25.76
2019-03-23T13:13:48.273Z,26.99
2019-03-23T13:17:50.206Z,25.43
2019-03-23T13:21:52.116Z,26.44
2019-03-23T13:25:54.044Z,26.45
2019-03-23T13:30:05.628Z,26.10
2019-03-23T13:34:07.533Z,26.10
2019-03-23T13:38:09.525Z,26.55
2019-03-23T13:42:11.492Z,25.00
2019-03-23T13:46:13.423Z,25.63
2019-03-23T13:50:19.931Z,26.86
2019-03-23T13:54:21.852Z,25.98
2019-03-23T13:58:23.779Z,25.81
2019-03-23T14:02:26.416Z,26.35
2019-03-23T14:06:28.335Z,25.20
2019-03-23T14:10:30.259Z,24.29
2019-03-23T14:14:32.206Z,23.05
2019-03-23T14:18:35.771Z,23.59
2019-03-23T14:22:37.747Z,25.17
2019-03-23T14:26:40.383Z,24.50
2019-03-23T14:30:42.350Z,22.53
2019-03-23T14:34:44.280Z,24.39
2019-03-23T14:38:46.206Z,23.06
2019-03-23T14:42:48.160Z,22.31
2019-03-23T14:46:50.070Z,23.13
2019-03-23T14:50:51.999Z,22.59
2019-03-23T14:54:54.007Z,23.06
2019-03-23T14:58:55.997Z,22.07
2019-03-23T15:02:57.919Z,23.04
2019-03-23T15:06:59.842Z,24.16
2019-03-23T15:11:01.767Z,24.42
2019-03-23T15:15:04.355Z,24.05
2019-03-23T15:19:24.696Z,24.50
2019-03-23T15:23:45.479Z,25.11
2019-03-23T15:27:57.799Z,25.07
2019-03-23T15:31:59.756Z,25.60
2019-03-23T15:36:03.533Z,25.50
2019-03-23T15:40:08.171Z,25.68
2019-03-23T15:44:10.085Z,26.38
2019-03-23T15:48:12.012Z,26.56
2019-03-23T15:52:13.937Z,27.18
2019-03-23T15:56:15.855Z,27.79
2019-03-23T16:00:20.416Z,27.68
2019-03-23T16:04:22.429Z,28.30
2019-03-23T16:08:24.345Z,28.44
2019-03-23T16:12:34.550Z,29.44
2019-03-23T16:16:29.906Z,30.15
2019-03-23T16:20:31.838Z,31.15
2019-03-23T16:24:33.761Z,30.90
2019-03-23T16:28:35.666Z,31.46
2019-03-23T16:32:37.871Z,31.71
2019-03-23T16:36:40.675Z,32.18
2019-03-23T16:40:42.591Z,32.04
2019-03-23T16:44:44.516Z,33.67
2019-03-23T16:48:46.425Z,35.46
2019-03-23T16:52:48.366Z,36.98
2019-03-23T16:56:50.324Z,38.85
2019-03-23T17:00:52.249Z,40.49
2019-03-23T17:04:54.175Z,41.57
2019-03-23T17:08:56.090Z,42.27
2019-03-23T17:12:58.141Z,42.84
2019-03-23T17:17:00.390Z,44.32
2019-03-23T17:21:02.414Z,45.40
2019-03-23T17:25:06.267Z,46.77
2019-03-23T17:29:08.198Z,47.07
2019-03-23T17:33:10.116Z,48.15
2019-03-23T17:37:12.037Z,48.83
2019-03-23T17:41:15.034Z,49.57
2019-03-23T17:45:16.943Z,49.91
2019-03-23T17:49:18.970Z,50.54
2019-03-23T17:53:20.938Z,50.85
2019-03-23T17:57:23.221Z,51.59
2019-03-23T18:01:25.148Z,52.58
2019-03-23T18:05:27.061Z,53.07
2019-03-23T18:09:28.994Z,53.71
2019-03-23T18:13:30.898Z,54.34
2019-03-23T18:17:33.210Z,54.48
2019-03-23T18:21:35.111Z,55.10
2019-03-23T18:25:37.263Z,55.73
2019-03-23T18:29:40.431Z,56.15
2019-03-23T18:33:42.354Z,56.51
2019-03-23T18:37:44.288Z,56.91
2019-03-23T18:41:46.215Z,57.48
2019-03-23T18:45:48.115Z,57.86
2019-03-23T18:49:50.043Z,58.29
2019-03-23T18:53:52.161Z,58.95
2019-03-23T18:57:54.072Z,59.47
2019-03-23T19:01:55.995Z,59.86
2019-03-23T19:05:58.010Z,59.98
2019-03-23T19:10:00.334Z,60.35
2019-03-23T19:14:02.243Z,60.79
2019-03-23T19:18:04.782Z,61.45
2019-03-23T19:22:06.683Z,62.15
2019-03-23T19:26:08.613Z,62.27
2019-03-23T19:30:11.805Z,62.20
2019-03-23T19:34:13.716Z,62.86
2019-03-23T19:38:15.622Z,62.99
2019-03-23T19:42:18.610Z,63.27
2019-03-23T19:46:20.571Z,64.10
2019-03-23T19:50:22.459Z,64.61
2019-03-23T19:54:24.369Z,65.09
2019-03-23T19:58:26.327Z,65.96
2019-03-23T20:02:28.325Z,66.53
2019-03-23T20:06:30.235Z,66.43
2019-03-23T20:10:32.165Z,66.83
2019-03-23T20:14:34.056Z,67.38
2019-03-23T20:18:35.975Z,68.24
2019-03-23T20:22:37.868Z,68.93
2019-03-23T20:26:40.745Z,69.21
2019-03-23T20:30:42.859Z,68.83
2019-03-23T20:34:44.755Z,71.59
2019-03-23T20:38:46.931Z,71.53
2019-03-23T20:42:48.847Z,71.53
2019-03-23T20:46:51.726Z,71.67
2019-03-23T20:50:53.681Z,72.62
2019-03-23T20:54:55.620Z,72.67
2019-03-23T20:58:57.517Z,72.73
2019-03-23T21:02:59.434Z,72.89
2019-03-23T21:07:01.644Z,73.46
2019-03-23T21:11:03.721Z,73.85
2019-03-23T21:15:06.928Z,73.71
2019-03-23T21:19:08.842Z,74.29
2019-03-23T21:23:10.754Z,74.70
2019-03-23T21:27:12.660Z,78.26
2019-03-23T21:31:14.578Z,75.80
2019-03-23T21:35:16.477Z,76.10
2019-03-23T21:39:18.385Z,76.47
2019-03-23T21:43:20.303Z,80.66
2019-03-23T21:47:22.391Z,80.79
2019-03-23T21:51:24.301Z,79.34
2019-03-23T21:55:26.223Z,79.36
2019-03-23T21:59:28.129Z,80.31
2019-03-23T22:03:30.041Z,79.30
2019-03-23T22:07:31.960Z,78.99
2019-03-23T22:11:35.042Z,78.80
2019-03-23T22:15:36.937Z,79.21
2019-03-23T22:19:38.848Z,78.71
2019-03-23T22:23:40.752Z,78.75
2019-03-23T22:27:42.646Z,80.09
2019-03-23T22:31:44.606Z,79.89
2019-03-23T22:35:46.578Z,79.73
2019-03-23T22:39:48.563Z,79.83
2019-03-23T22:43:50.478Z,82.51
2019-03-23T22:47:52.383Z,80.79
2019-03-23T22:51:54.339Z,79.93
2019-03-23T22:55:56.230Z,80.26
2019-03-23T22:59:58.137Z,79.72
2019-03-23T23:04:00.085Z,79.93
2019-03-23T23:08:02.973Z,79.74
2019-03-23T23:12:04.875Z,79.97
2019-03-23T23:16:06.780Z,80.76
2019-03-23T23:20:17.358Z,80.51
2019-03-23T23:24:20.323Z,80.67
2019-03-23T23:28:22.218Z,80.31
2019-03-23T23:32:24.142Z,80.92
2019-03-23T23:36:27.106Z,81.40
2019-03-23T23:40:29.113Z,81.58
2019-03-23T23:44:31.087Z,81.29
2019-03-23T23:48:33.069Z,80.87
2019-03-23T23:52:34.988Z,80.69
2019-03-23T23:56:36.943Z,80.88
